Time;durP1;ratioP1;P1;durP2;ratioP2;P2;SDS_P1;SDS_P2;PMS_P1;PMS_P2;Temp;Humidity;BMP_temperature;BMP_pressure;BME280_temperature;BME280_humidity;BME280_pressure;Samples;Min_cycle;Max_cycle;Signal;HPM_P1;HPM_P2
2021/07/07 00:01:34;;;;;;;13.10;6.50;;;;;;;;;;5077878;28;20356;-90
2021/07/07 00:04:02;;;;;;;9.45;5.90;;;;;;;;;;5061738;28;20029;-87
2021/07/07 00:06:27;;;;;;;11.98;6.78;;;;;;;;;;5063272;28;20020;-85
2021/07/07 00:08:53;;;;;;;15.60;8.32;;;;;;;;;;5063563;28;20020;-89
2021/07/07 00:11:21;;;;;;;14.35;8.73;;;;;;;;;;5081166;28;20024;-89
2021/07/07 00:13:47;;;;;;;15.95;8.75;;;;;;;;;;5063688;28;20321;-87
2021/07/07 00:16:13;;;;;;;17.90;8.70;;;;;;;;;;5082106;28;20099;-87
2021/07/07 00:18:42;;;;;;;15.98;8.82;;;;;;;;;;5064858;28;20050;-88
2021/07/07 00:21:08;;;;;;;19.02;10.63;;;;;;;;;;5082815;28;20361;-87
2021/07/07 00:23:34;;;;;;;13.32;8.13;;;;;;;;;;5065546;28;20028;-85
2021/07/07 00:26:00;;;;;;;13.02;7.95;;;;;;;;;;5064008;28;20024;-88
2021/07/07 00:28:26;;;;;;;16.38;9.10;;;;;;;;;;5081732;28;20025;-87
2021/07/07 00:30:54;;;;;;;13.65;7.45;;;;;;;;;;5062369;28;20033;-87
2021/07/07 00:33:30;;;;;;;15.35;8.98;;;;;;;;;;5083080;28;20025;-87
2021/07/07 00:35:56;;;;;;;13.73;8.85;;;;;;;;;;5064892;28;20033;-86
2021/07/07 00:38:21;;;;;;;14.18;9.65;;;;;;;;;;5083307;28;20027;-87
2021/07/07 00:40:47;;;;;;;13.65;8.10;;;;;;;;;;5083260;28;20048;-85
2021/07/07 00:43:18;;;;;;;11.70;6.82;;;;;;;;;;5065050;28;20029;-85
2021/07/07 00:45:55;;;;;;;15.35;9.43;;;;;;;;;;5064212;28;20041;-85
2021/07/07 00:48:20;;;;;;;14.70;9.13;;;;;;;;;;5049308;28;20387;-87
2021/07/07 00:50:49;;;;;;;15.40;9.85;;;;;;;;;;5079302;28;20035;-90
2021/07/07 00:53:17;;;;;;;16.08;9.13;;;;;;;;;;5079533;28;20032;-88
2021/07/07 00:55:43;;;;;;;16.50;7.38;;;;;;;;;;5077795;28;20028;-89
2021/07/07 00:58:11;;;;;;;15.13;7.55;;;;;;;;;;5082894;28;20081;-85
2021/07/07 01:00:37;;;;;;;11.93;8.38;;;;;;;;;;5064187;28;20490;-84
2021/07/07 01:03:04;;;;;;;13.10;7.95;;;;;;;;;;5080775;28;20032;-87
2021/07/07 01:05:30;;;;;;;10.82;7.32;;;;;;;;;;5064192;28;20020;-90
2021/07/07 01:07:58;;;;;;;11.88;8.32;;;;;;;;;;5082725;28;20021;-86
2021/07/07 01:10:25;;;;;;;14.10;7.63;;;;;;;;;;5062077;28;20052;-85
2021/07/07 01:12:53;;;;;;;12.80;7.05;;;;;;;;;;5045856;28;20028;-84
2021/07/07 01:15:20;;;;;;;13.52;8.70;;;;;;;;;;5063353;28;20429;-86
2021/07/07 01:17:47;;;;;;;14.55;7.30;;;;;;;;;;5062718;28;20028;-89
2021/07/07 01:20:16;;;;;;;17.15;10.27;;;;;;;;;;5058947;28;20031;-86
2021/07/07 01:22:43;;;;;;;15.90;9.68;;;;;;;;;;5060665;28;20028;-88
2021/07/07 01:25:10;;;;;;;14.95;8.38;;;;;;;;;;5077976;28;20031;-86
2021/07/07 01:27:38;;;;;;;13.93;8.32;;;;;;;;;;5077378;28;20028;-86
2021/07/07 01:30:06;;;;;;;11.40;7.13;;;;;;;;;;5059994;28;20056;-85
2021/07/07 01:32:31;;;;;;;13.57;9.05;;;;;;;;;;5077525;28;20051;-85
2021/07/07 01:34:57;;;;;;;17.70;9.88;;;;;;;;;;5078583;28;20070;-86
2021/07/07 01:37:24;;;;;;;16.50;10.98;;;;;;;;;;5078337;28;20029;-91
2021/07/07 01:39:50;;;;;;;14.45;8.98;;;;;;;;;;5059975;28;20035;-86
2021/07/07 01:42:16;;;;;;;18.02;10.30;;;;;;;;;;5059698;28;20025;-90
2021/07/07 01:44:42;;;;;;;14.13;9.73;;;;;;;;;;5059864;28;20044;-87
2021/07/07 01:47:13;;;;;;;14.75;9.18;;;;;;;;;;5060896;28;20115;-87
2021/07/07 01:49:39;;;;;;;19.90;9.85;;;;;;;;;;5060275;28;20025;-85
2021/07/07 01:52:05;;;;;;;17.42;9.68;;;;;;;;;;5078483;28;20020;-87
2021/07/07 01:54:30;;;;;;;14.60;9.38;;;;;;;;;;5077851;28;20093;-87
2021/07/07 01:56:56;;;;;;;16.95;10.60;;;;;;;;;;5080826;28;20028;-90
2021/07/07 01:59:22;;;;;;;15.95;9.93;;;;;;;;;;5082056;28;20025;-89
2021/07/07 02:01:48;;;;;;;24.23;12.68;;;;;;;;;;5079173;28;20028;-90
2021/07/07 02:04:13;;;;;;;14.73;9.68;;;;;;;;;;5082507;28;20020;-90
2021/07/07 02:06:39;;;;;;;14.43;9.55;;;;;;;;;;5083643;28;20073;-85
2021/07/07 02:09:06;;;;;;;19.70;10.40;;;;;;;;;;5062884;28;20027;-89
2021/07/07 02:11:33;;;;;;;15.88;9.43;;;;;;;;;;5063738;28;20031;-86
2021/07/07 02:13:58;;;;;;;18.30;11.52;;;;;;;;;;5081450;28;20497;-87
2021/07/07 02:16:24;;;;;;;20.88;13.30;;;;;;;;;;5062597;28;20021;-85
2021/07/07 02:18:51;;;;;;;21.77;14.18;;;;;;;;;;5064636;28;20028;-86
2021/07/07 02:21:17;;;;;;;13.88;8.35;;;;;;;;;;5083518;28;20046;-85
2021/07/07 02:23:43;;;;;;;15.88;10.10;;;;;;;;;;5059466;28;20021;-85
2021/07/07 02:26:09;;;;;;;15.30;9.73;;;;;;;;;;5076301;28;20544;-86
2021/07/07 02:28:35;;;;;;;20.92;11.18;;;;;;;;;;5058250;28;20123;-85
2021/07/07 02:31:01;;;;;;;15.63;9.48;;;;;;;;;;5076230;28;20028;-87
2021/07/07 02:33:27;;;;;;;20.15;8.00;;;;;;;;;;5058503;28;20036;-85
2021/07/07 02:35:54;;;;;;;19.80;9.80;;;;;;;;;;5058398;28;20021;-86
2021/07/07 02:38:23;;;;;;;13.60;8.20;;;;;;;;;;5075933;28;20086;-86
2021/07/07 02:40:50;;;;;;;17.65;10.10;;;;;;;;;;5057833;28;20036;-87
2021/07/07 02:43:18;;;;;;;15.07;7.88;;;;;;;;;;5076301;28;20025;-85
2021/07/07 02:45:44;;;;;;;19.00;10.35;;;;;;;;;;5054303;28;20495;-87
2021/07/07 02:48:12;;;;;;;27.05;10.07;;;;;;;;;;5054635;28;20504;-88
2021/07/07 02:50:50;;;;;;;12.55;8.93;;;;;;;;;;5055305;28;20041;-84
2021/07/07 02:54:24;;;;;;;14.85;10.45;;;;;;;;;;5054668;28;20116;-87
2021/07/07 02:56:50;;;;;;;17.67;10.27;;;;;;;;;;5014971;28;20117;-86
2021/07/07 02:59:16;;;;;;;15.05;8.80;;;;;;;;;;5014328;28;20109;-87
2021/07/07 03:01:41;;;;;;;14.32;9.25;;;;;;;;;;5040979;28;20091;-87
2021/07/07 03:04:07;;;;;;;15.60;10.43;;;;;;;;;;5055318;28;20037;-88
2021/07/07 03:06:33;;;;;;;18.70;10.82;;;;;;;;;;5056995;28;20024;-86
2021/07/07 03:09:00;;;;;;;15.90;9.82;;;;;;;;;;5056489;28;20073;-89
2021/07/07 03:11:26;;;;;;;18.90;10.10;;;;;;;;;;5055000;28;20044;-84
2021/07/07 03:13:52;;;;;;;15.68;10.05;;;;;;;;;;5056306;28;20075;-88
2021/07/07 03:16:20;;;;;;;17.65;9.52;;;;;;;;;;5057454;28;20029;-86
2021/07/07 03:18:46;;;;;;;16.50;11.38;;;;;;;;;;5056709;28;20029;-86
2021/07/07 03:21:12;;;;;;;19.05;9.95;;;;;;;;;;5072038;28;20376;-86
2021/07/07 03:23:38;;;;;;;14.75;10.63;;;;;;;;;;5056685;28;20029;-87
2021/07/07 03:26:03;;;;;;;13.73;10.23;;;;;;;;;;5057086;28;20112;-85
2021/07/07 03:28:29;;;;;;;12.35;8.90;;;;;;;;;;5056785;28;20044;-89
2021/07/07 03:30:55;;;;;;;14.60;10.80;;;;;;;;;;5053907;28;20066;-90
2021/07/07 03:33:21;;;;;;;13.85;8.68;;;;;;;;;;5053685;28;20488;-89
2021/07/07 03:35:47;;;;;;;17.40;9.85;;;;;;;;;;5053455;28;20025;-88
2021/07/07 03:38:14;;;;;;;13.73;7.32;;;;;;;;;;5054600;28;20017;-90
2021/07/07 03:40:40;;;;;;;13.73;8.98;;;;;;;;;;5053383;28;20516;-91
2021/07/07 03:43:07;;;;;;;14.48;8.13;;;;;;;;;;5054491;28;20033;-88
2021/07/07 03:45:33;;;;;;;14.45;9.18;;;;;;;;;;5064955;28;20044;-90
2021/07/07 03:47:59;;;;;;;15.02;10.18;;;;;;;;;;5070782;28;20024;-88
2021/07/07 03:50:25;;;;;;;15.73;9.55;;;;;;;;;;5074453;28;20021;-90
2021/07/07 03:52:52;;;;;;;13.18;8.45;;;;;;;;;;5074752;28;20031;-87
2021/07/07 03:55:20;;;;;;;13.65;8.25;;;;;;;;;;5056318;28;20491;-88
2021/07/07 03:57:46;;;;;;;12.95;9.00;;;;;;;;;;5056243;28;20055;-88
2021/07/07 04:00:16;;;;;;;14.20;9.20;;;;;;;;;;5056932;28;20476;-90
2021/07/07 04:02:42;;;;;;;15.98;8.52;;;;;;;;;;5074776;28;20112;-88
2021/07/07 04:05:09;;;;;;;16.83;9.05;;;;;;;;;;5074419;28;20052;-88
2021/07/07 04:07:36;;;;;;;13.55;9.27;;;;;;;;;;5074880;28;20035;-88
2021/07/07 04:10:04;;;;;;;12.73;8.63;;;;;;;;;;5075118;28;20071;-90
2021/07/07 04:12:30;;;;;;;14.52;8.43;;;;;;;;;;5074720;28;20116;-92
2021/07/07 04:14:55;;;;;;;14.20;9.48;;;;;;;;;;5075478;28;20071;-89
2021/07/07 04:17:21;;;;;;;14.48;8.23;;;;;;;;;;5076400;28;20024;-92
2021/07/07 04:19:47;;;;;;;12.60;8.25;;;;;;;;;;5079493;28;20021;-88
2021/07/07 04:22:13;;;;;;;13.98;8.57;;;;;;;;;;5063494;28;20037;-89
2021/07/07 04:24:40;;;;;;;13.88;8.40;;;;;;;;;;5059289;28;20035;-88
2021/07/07 04:27:06;;;;;;;14.27;9.25;;;;;;;;;;5058385;28;20028;-89
2021/07/07 04:29:31;;;;;;;18.75;7.82;;;;;;;;;;5058449;28;20020;-90
2021/07/07 04:31:57;;;;;;;13.40;8.95;;;;;;;;;;5073414;28;20099;-89
2021/07/07 04:34:24;;;;;;;13.63;8.85;;;;;;;;;;5055727;28;20427;-91
2021/07/07 04:36:50;;;;;;;11.68;8.73;;;;;;;;;;5073815;28;20078;-90
2021/07/07 04:39:16;;;;;;;13.93;8.80;;;;;;;;;;5073558;28;20033;-89
2021/07/07 04:41:42;;;;;;;15.55;8.15;;;;;;;;;;5055503;28;20112;-91
2021/07/07 04:44:09;;;;;;;15.23;9.32;;;;;;;;;;5073412;28;20399;-90
2021/07/07 04:46:34;;;;;;;13.88;10.27;;;;;;;;;;5055369;28;20041;-90
2021/07/07 04:49:00;;;;;;;15.45;9.50;;;;;;;;;;5055468;28;20048;-90
2021/07/07 04:51:26;;;;;;;14.30;9.73;;;;;;;;;;5055499;28;20024;-90
2021/07/07 04:53:52;;;;;;;18.73;8.93;;;;;;;;;;5073560;28;20028;-90
2021/07/07 04:56:17;;;;;;;14.63;10.00;;;;;;;;;;5073433;28;20466;-90
2021/07/07 04:58:43;;;;;;;16.98;10.05;;;;;;;;;;5073358;28;20047;-89
2021/07/07 05:01:09;;;;;;;17.20;10.93;;;;;;;;;;5055979;28;20051;-89
2021/07/07 05:03:35;;;;;;;15.30;10.43;;;;;;;;;;5074431;28;20028;-92
2021/07/07 05:06:02;;;;;;;19.05;12.40;;;;;;;;;;5074099;28;20029;-91
2021/07/07 05:08:28;;;;;;;16.05;11.13;;;;;;;;;;5043206;28;20028;-91
2021/07/07 05:10:54;;;;;;;16.83;11.85;;;;;;;;;;5076694;28;20389;-89
2021/07/07 05:13:21;;;;;;;15.88;10.68;;;;;;;;;;5073681;28;20035;-89
2021/07/07 05:15:48;;;;;;;20.20;10.25;;;;;;;;;;5074486;28;20496;-89
2021/07/07 05:18:14;;;;;;;15.82;11.25;;;;;;;;;;5073687;28;20471;-88
2021/07/07 05:20:40;;;;;;;19.20;12.27;;;;;;;;;;5055231;28;20090;-89
2021/07/07 05:23:06;;;;;;;20.15;12.88;;;;;;;;;;5055437;28;20032;-88
2021/07/07 05:25:36;;;;;;;18.13;11.55;;;;;;;;;;5073382;28;20066;-89
2021/07/07 05:28:02;;;;;;;17.83;12.40;;;;;;;;;;5073578;28;20048;-90
2021/07/07 05:30:28;;;;;;;16.13;11.20;;;;;;;;;;5055286;28;20027;-89
2021/07/07 05:32:54;;;;;;;14.35;9.75;;;;;;;;;;5055100;28;20107;-90
2021/07/07 05:35:20;;;;;;;15.05;10.30;;;;;;;;;;5055037;28;20119;-92
2021/07/07 05:37:46;;;;;;;15.35;11.50;;;;;;;;;;5055077;28;20162;-88
2021/07/07 05:40:14;;;;;;;18.25;11.55;;;;;;;;;;5073104;28;20024;-89
2021/07/07 05:42:39;;;;;;;15.55;11.18;;;;;;;;;;5073003;28;20067;-90
2021/07/07 05:45:06;;;;;;;17.05;12.85;;;;;;;;;;5057524;28;20114;-90
2021/07/07 05:47:32;;;;;;;17.25;11.50;;;;;;;;;;5076634;28;20032;-90
2021/07/07 05:50:14;;;;;;;16.58;11.10;;;;;;;;;;5059050;28;20027;-88
2021/07/07 05:52:40;;;;;;;16.35;10.27;;;;;;;;;;5076950;28;20028;-90
2021/07/07 05:55:06;;;;;;;16.75;10.65;;;;;;;;;;5076742;28;20016;-90
2021/07/07 05:57:38;;;;;;;14.70;11.05;;;;;;;;;;5076453;28;20383;-90
2021/07/07 06:00:07;;;;;;;17.83;11.05;;;;;;;;;;5076923;28;20025;-91
2021/07/07 06:02:33;;;;;;;;;;;;;;;;;;5059717;28;20376;-92
2021/07/07 06:04:58;;;;;;;15.20;10.75;;;;;;;;;;5076483;28;20368;-90
2021/07/07 06:07:24;;;;;;;14.52;9.35;;;;;;;;;;5076536;28;20025;-90
2021/07/07 06:09:50;;;;;;;16.92;9.68;;;;;;;;;;5058333;28;20120;-89
2021/07/07 06:12:15;;;;;;;15.73;11.95;;;;;;;;;;5058221;28;20029;-90
2021/07/07 06:14:41;;;;;;;15.13;9.88;;;;;;;;;;5058338;28;20119;-89
2021/07/07 06:17:07;;;;;;;16.38;11.35;;;;;;;;;;5058262;28;20028;-89
2021/07/07 06:19:32;;;;;;;12.35;8.60;;;;;;;;;;5076127;28;20510;-89
2021/07/07 06:22:00;;;;;;;13.98;10.15;;;;;;;;;;5075448;28;20067;-91
2021/07/07 06:24:27;;;;;;;13.65;9.15;;;;;;;;;;5075984;28;20127;-91
2021/07/07 06:26:53;;;;;;;14.63;10.57;;;;;;;;;;5075079;28;20082;-88
2021/07/07 06:29:19;;;;;;;17.92;10.93;;;;;;;;;;5076382;28;20037;-91
2021/07/07 06:31:45;;;;;;;14.07;8.13;;;;;;;;;;5058487;28;20032;-91
2021/07/07 06:34:11;;;;;;;12.43;9.80;;;;;;;;;;5066260;28;20021;-88
2021/07/07 06:36:38;;;;;;;14.38;8.85;;;;;;;;;;5047291;28;20376;-89
2021/07/07 06:39:04;;;;;;;11.60;8.85;;;;;;;;;;5058916;28;20029;-88
2021/07/07 06:41:32;;;;;;;12.60;8.63;;;;;;;;;;5076724;28;20025;-88
2021/07/07 06:43:58;;;;;;;13.50;8.85;;;;;;;;;;5068176;28;20036;-90
2021/07/07 06:46:24;;;;;;;12.57;9.23;;;;;;;;;;5045151;28;20072;-85
2021/07/07 06:48:49;;;;;;;12.05;9.30;;;;;;;;;;5072525;28;20055;-88
2021/07/07 06:51:15;;;;;;;14.27;8.27;;;;;;;;;;5057279;28;20064;-89
2021/07/07 06:56:56;;;;;;;14.35;8.63;;;;;;;;;;5130219;22;20116;-87
2021/07/07 06:59:22;;;;;;;11.70;8.93;;;;;;;;;;5115555;28;20032;-88
2021/07/07 07:01:47;;;;;;;11.07;7.47;;;;;;;;;;5096903;28;20544;-88
2021/07/07 07:04:13;;;;;;;11.43;7.20;;;;;;;;;;5115394;28;20028;-89
2021/07/07 07:06:39;;;;;;;10.50;7.32;;;;;;;;;;5097546;28;20528;-87
2021/07/07 07:09:05;;;;;;;12.45;8.63;;;;;;;;;;5097228;28;20035;-88
2021/07/07 07:11:31;;;;;;;13.52;8.85;;;;;;;;;;5096928;28;20121;-91
2021/07/07 07:13:56;;;;;;;13.95;8.48;;;;;;;;;;5115632;28;20015;-88
2021/07/07 07:16:22;;;;;;;13.88;7.38;;;;;;;;;;5097421;28;20034;-89
2021/07/07 07:18:48;;;;;;;14.38;8.43;;;;;;;;;;5115509;28;20023;-89
2021/07/07 07:21:13;;;;;;;13.10;6.97;;;;;;;;;;5115430;28;20479;-90
2021/07/07 07:23:48;;;;;;;10.18;7.55;;;;;;;;;;5097191;28;20024;-89
2021/07/07 07:26:14;;;;;;;11.18;7.50;;;;;;;;;;5095392;22;20067;-89
2021/07/07 07:28:40;;;;;;;9.55;7.88;;;;;;;;;;5053351;28;20033;-91
2021/07/07 07:31:12;;;;;;;11.40;6.47;;;;;;;;;;5053482;28;20025;-91
2021/07/07 07:33:38;;;;;;;11.80;7.38;;;;;;;;;;5037048;28;20029;-90
2021/07/07 07:36:05;;;;;;;9.73;6.25;;;;;;;;;;5054603;28;20025;-86
2021/07/07 07:41:16;;;;;;;11.27;8.45;;;;;;;;;;5040265;28;20032;-90
2021/07/07 07:43:43;;;;;;;9.20;6.43;;;;;;;;;;5036498;28;20116;-88
2021/07/07 07:46:09;;;;;;;9.65;7.97;;;;;;;;;;5054444;28;20017;-91
2021/07/07 07:48:35;;;;;;;13.02;7.65;;;;;;;;;;5036319;28;20020;-89
2021/07/07 07:51:01;;;;;;;8.68;5.22;;;;;;;;;;5072139;28;20028;-88
2021/07/07 07:53:27;;;;;;;11.80;7.60;;;;;;;;;;5074077;28;20440;-88
2021/07/07 07:55:54;;;;;;;8.90;6.90;;;;;;;;;;5056528;28;20059;-89
2021/07/07 07:58:19;;;;;;;8.60;6.05;;;;;;;;;;5074319;28;20020;-88
2021/07/07 08:00:49;;;;;;;11.30;7.65;;;;;;;;;;5055847;28;20548;-87
2021/07/07 08:03:16;;;;;;;8.55;6.57;;;;;;;;;;5032828;28;20455;-88
2021/07/07 08:05:43;;;;;;;8.52;6.47;;;;;;;;;;5034674;28;20024;-89
2021/07/07 08:08:09;;;;;;;7.88;5.38;;;;;;;;;;5034281;28;20116;-90
2021/07/07 08:10:36;;;;;;;11.25;5.60;;;;;;;;;;5053787;28;20073;-90
2021/07/07 08:13:03;;;;;;;9.73;6.35;;;;;;;;;;5053763;28;20468;-89
2021/07/07 08:15:28;;;;;;;9.13;6.85;;;;;;;;;;5035985;28;20119;-90
2021/07/07 08:17:56;;;;;;;9.43;6.47;;;;;;;;;;5053872;28;20045;-88
2021/07/07 08:20:23;;;;;;;10.30;5.30;;;;;;;;;;5053413;28;20100;-87
2021/07/07 08:22:50;;;;;;;9.85;6.32;;;;;;;;;;5053668;28;20060;-89
2021/07/07 08:25:17;;;;;;;8.65;5.45;;;;;;;;;;5036112;28;20475;-87
2021/07/07 08:27:43;;;;;;;8.85;5.53;;;;;;;;;;5053452;28;20400;-88
2021/07/07 08:30:09;;;;;;;8.50;4.78;;;;;;;;;;5053828;28;20025;-90
2021/07/07 08:32:36;;;;;;;7.28;4.22;;;;;;;;;;5053635;28;20128;-91
2021/07/07 08:35:03;;;;;;;6.53;4.10;;;;;;;;;;5053860;28;20108;-90
2021/07/07 08:37:29;;;;;;;8.98;5.07;;;;;;;;;;5053395;28;20380;-90
2021/07/07 08:39:55;;;;;;;6.50;4.85;;;;;;;;;;5035974;28;20056;-91
2021/07/07 08:42:20;;;;;;;8.68;3.80;;;;;;;;;;5053698;28;20112;-89
2021/07/07 08:44:46;;;;;;;6.32;5.28;;;;;;;;;;5053829;28;20027;-90
2021/07/07 08:47:13;;;;;;;9.25;5.00;;;;;;;;;;5035115;28;20048;-88
2021/07/07 08:49:39;;;;;;;6.43;3.65;;;;;;;;;;5053698;28;20100;-91
2021/07/07 08:52:09;;;;;;;6.78;4.18;;;;;;;;;;5035890;28;20103;-87
2021/07/07 08:54:35;;;;;;;7.28;6.55;;;;;;;;;;5053313;28;20479;-87
2021/07/07 08:57:07;;;;;;;7.45;6.68;;;;;;;;;;5053494;28;20056;-89
2021/07/07 08:59:33;;;;;;;7.85;5.03;;;;;;;;;;5035832;28;20472;-91
2021/07/07 09:01:58;;;;;;;8.25;4.80;;;;;;;;;;5029682;28;20033;-88
2021/07/07 09:04:29;;;;;;;7.88;5.47;;;;;;;;;;5035243;28;20385;-90
2021/07/07 09:07:28;;;;;;;6.60;2.88;;;;;;;;;;5035323;28;20043;-90
2021/07/07 09:09:53;;;;;;;7.05;3.10;;;;;;;;;;5033293;28;20059;-90
2021/07/07 09:12:32;;;;;;;7.93;4.25;;;;;;;;;;5036054;28;20072;-88
2021/07/07 09:15:05;;;;;;;6.25;3.28;;;;;;;;;;5035527;28;20061;-88
2021/07/07 09:17:42;;;;;;;8.40;3.80;;;;;;;;;;5053532;28;20032;-88
2021/07/07 09:20:19;;;;;;;7.07;3.58;;;;;;;;;;5039013;28;20021;-89
2021/07/07 09:22:45;;;;;;;6.43;3.92;;;;;;;;;;5055136;28;20041;-89
2021/07/07 09:25:14;;;;;;;6.93;3.53;;;;;;;;;;5056894;28;20017;-88
2021/07/07 09:27:40;;;;;;;7.30;4.57;;;;;;;;;;5056723;28;20041;-89
2021/07/07 09:30:09;;;;;;;6.40;4.20;;;;;;;;;;5057179;28;20060;-89
2021/07/07 09:32:51;;;;;;;7.60;3.58;;;;;;;;;;5056844;28;20120;-90
2021/07/07 09:35:19;;;;;;;6.90;4.72;;;;;;;;;;5039502;28;20029;-89
2021/07/07 09:37:56;;;;;;;6.35;4.47;;;;;;;;;;5057466;28;20056;-89
2021/07/07 09:40:23;;;;;;;6.97;3.85;;;;;;;;;;5034650;28;20032;-89
2021/07/07 09:42:49;;;;;;;8.85;3.83;;;;;;;;;;5038698;28;20033;-92
2021/07/07 09:45:21;;;;;;;5.35;3.08;;;;;;;;;;5039237;28;20036;-88
2021/07/07 09:47:48;;;;;;;6.22;5.30;;;;;;;;;;5039114;28;20032;-89
2021/07/07 09:50:16;;;;;;;7.43;3.78;;;;;;;;;;5057600;28;20025;-90
2021/07/07 09:52:42;;;;;;;5.13;3.53;;;;;;;;;;5039617;28;20039;-90
2021/07/07 09:55:09;;;;;;;6.95;4.50;;;;;;;;;;5057034;28;20373;-89
2021/07/07 09:57:48;;;;;;;6.10;3.55;;;;;;;;;;5056815;28;20098;-91
2021/07/07 10:00:23;;;;;;;9.00;3.17;;;;;;;;;;5056200;28;20028;-88
2021/07/07 10:02:50;;;;;;;8.23;3.40;;;;;;;;;;5037725;28;20036;-87
2021/07/07 10:05:18;;;;;;;6.68;4.35;;;;;;;;;;5052485;28;20380;-88
2021/07/07 10:07:44;;;;;;;7.60;3.72;;;;;;;;;;5039827;28;20120;-90
2021/07/07 10:10:20;;;;;;;8.38;4.82;;;;;;;;;;5056849;28;20354;-90
2021/07/07 10:12:47;;;;;;;6.78;3.63;;;;;;;;;;5041982;28;20024;-90
2021/07/07 10:15:14;;;;;;;7.10;3.40;;;;;;;;;;5039986;28;20464;-86
2021/07/07 10:17:41;;;;;;;7.88;3.40;;;;;;;;;;5038760;28;20040;-90
2021/07/07 10:20:12;;;;;;;6.55;3.80;;;;;;;;;;5056234;28;20025;-88
2021/07/07 10:22:38;;;;;;;7.03;3.15;;;;;;;;;;5056114;28;20096;-87
2021/07/07 10:25:08;;;;;;;5.38;2.97;;;;;;;;;;5059581;28;20028;-87
2021/07/07 10:27:36;;;;;;;7.55;3.53;;;;;;;;;;5038785;28;20041;-88
2021/07/07 10:30:03;;;;;;;9.55;3.80;;;;;;;;;;5056699;28;20472;-89
2021/07/07 10:32:29;;;;;;;6.22;4.63;;;;;;;;;;5039934;28;20412;-91
2021/07/07 10:35:15;;;;;;;8.25;6.13;;;;;;;;;;5037236;28;20032;-89
2021/07/07 10:37:42;;;;;;;6.30;3.58;;;;;;;;;;5037486;28;20033;-87
2021/07/07 10:40:27;;;;;;;5.43;2.88;;;;;;;;;;5036574;28;20017;-88
2021/07/07 10:42:54;;;;;;;7.35;3.25;;;;;;;;;;5033968;28;20036;-88
2021/07/07 10:45:44;;;;;;;11.00;5.25;;;;;;;;;;5035142;28;20022;-88
2021/07/07 10:48:25;;;;;;;6.63;4.15;;;;;;;;;;5035531;28;20495;-86
2021/07/07 10:51:15;;;;;;;6.90;3.83;;;;;;;;;;5018031;28;20488;-86
2021/07/07 10:53:41;;;;;;;6.72;3.15;;;;;;;;;;5004175;28;20042;-86
2021/07/07 10:56:08;;;;;;;6.25;3.28;;;;;;;;;;5036027;28;20056;-86
2021/07/07 10:58:38;;;;;;;6.03;3.92;;;;;;;;;;5059979;28;20111;-90
2021/07/07 11:01:37;;;;;;;5.97;3.65;;;;;;;;;;5049383;28;20032;-87
2021/07/07 11:04:12;;;;;;;7.05;3.70;;;;;;;;;;5044261;28;20063;-90
2021/07/07 11:06:38;;;;;;;5.90;3.45;;;;;;;;;;5038468;28;20057;-87
2021/07/07 11:09:15;;;;;;;5.57;3.53;;;;;;;;;;5055611;28;20481;-88
2021/07/07 11:11:45;;;;;;;9.52;3.95;;;;;;;;;;5055479;28;20469;-88
2021/07/07 11:14:19;;;;;;;10.23;4.03;;;;;;;;;;5037336;28;20124;-88
2021/07/07 11:16:50;;;;;;;7.25;5.97;;;;;;;;;;5038066;28;20079;-90
2021/07/07 11:19:43;;;;;;;8.48;4.32;;;;;;;;;;5038848;28;20465;-89
2021/07/07 11:22:11;;;;;;;7.50;3.63;;;;;;;;;;5036485;28;20037;-87
2021/07/07 11:24:42;;;;;;;12.52;6.60;;;;;;;;;;5056189;28;20100;-87
2021/07/07 11:27:07;;;;;;;5.57;3.25;;;;;;;;;;5034084;28;20128;-87
2021/07/07 11:29:33;;;;;;;6.93;5.28;;;;;;;;;;5035630;28;20440;-87
2021/07/07 11:31:59;;;;;;;8.02;4.07;;;;;;;;;;5035190;28;20021;-88
2021/07/07 11:34:25;;;;;;;7.38;6.05;;;;;;;;;;5034642;28;20163;-90
2021/07/07 11:36:57;;;;;;;12.82;4.70;;;;;;;;;;5033897;28;20116;-88
2021/07/07 11:39:24;;;;;;;20.48;8.52;;;;;;;;;;5034531;28;20473;-88
2021/07/07 11:42:04;;;;;;;7.80;4.78;;;;;;;;;;5031540;28;20040;-89
2021/07/07 11:44:44;;;;;;;6.80;4.30;;;;;;;;;;5029996;28;20022;-89
2021/07/07 11:47:11;;;;;;;8.70;4.47;;;;;;;;;;5033585;28;20409;-87
2021/07/07 11:49:37;;;;;;;9.05;4.43;;;;;;;;;;5032922;28;20078;-87
2021/07/07 11:52:04;;;;;;;8.60;4.80;;;;;;;;;;5032508;28;20021;-88
2021/07/07 11:54:47;;;;;;;7.28;4.43;;;;;;;;;;5032525;28;20030;-91
2021/07/07 11:57:16;;;;;;;7.50;4.60;;;;;;;;;;5033900;28;20053;-87
2021/07/07 11:59:51;;;;;;;10.05;4.72;;;;;;;;;;5035138;28;20095;-90
2021/07/07 12:02:18;;;;;;;12.55;4.38;;;;;;;;;;5033466;28;20392;-89
2021/07/07 12:04:43;;;;;;;7.75;5.85;;;;;;;;;;5034492;28;20496;-88
2021/07/07 12:07:21;;;;;;;8.25;4.47;;;;;;;;;;5032087;28;20113;-89
2021/07/07 12:09:49;;;;;;;9.02;4.85;;;;;;;;;;5033996;28;20028;-90
2021/07/07 12:12:15;;;;;;;8.60;5.68;;;;;;;;;;5032859;28;20036;-90
2021/07/07 12:14:41;;;;;;;7.53;4.70;;;;;;;;;;5032592;28;20030;-91
2021/07/07 12:17:07;;;;;;;9.35;7.10;;;;;;;;;;5032441;28;20017;-85
2021/07/07 12:19:34;;;;;;;8.13;4.63;;;;;;;;;;5032553;28;20025;-86
2021/07/07 12:22:05;;;;;;;8.13;4.88;;;;;;;;;;5111157;22;20057;-87
2021/07/07 12:24:42;;;;;;;11.05;6.43;;;;;;;;;;5073200;28;20055;-88
2021/07/07 12:27:14;;;;;;;7.25;4.85;;;;;;;;;;5074264;28;20024;-88
2021/07/07 12:29:42;;;;;;;9.57;7.80;;;;;;;;;;5073100;28;20048;-91
2021/07/07 12:32:11;;;;;;;10.02;7.05;;;;;;;;;;5072817;28;20027;-87
2021/07/07 12:34:51;;;;;;;12.13;4.82;;;;;;;;;;5072654;28;20025;-87
2021/07/07 12:37:17;;;;;;;10.13;8.27;;;;;;;;;;5073708;28;20031;-87
2021/07/07 12:39:49;;;;;;;8.88;5.22;;;;;;;;;;5074086;28;20059;-87
2021/07/07 12:42:30;;;;;;;10.43;4.93;;;;;;;;;;5074253;28;20028;-89
2021/07/07 12:45:13;;;;;;;7.47;4.82;;;;;;;;;;5076286;28;20522;-87
2021/07/07 12:47:44;;;;;;;9.27;6.78;;;;;;;;;;5073786;28;20388;-86
2021/07/07 12:50:24;;;;;;;8.52;4.60;;;;;;;;;;5071569;28;20060;-91
2021/07/07 12:52:50;;;;;;;7.22;4.63;;;;;;;;;;5070975;28;20031;-88
2021/07/07 12:58:14;;;;;;;9.05;4.20;;;;;;;;;;5118587;22;20082;-87
2021/07/07 13:00:49;;;;;;;10.25;7.60;;;;;;;;;;5094251;28;20027;-87
2021/07/07 13:03:22;;;;;;;9.35;4.78;;;;;;;;;;5094933;28;20024;-89
2021/07/07 13:05:54;;;;;;;9.63;7.45;;;;;;;;;;5096011;28;20027;-87
2021/07/07 13:08:42;;;;;;;8.05;5.28;;;;;;;;;;5095806;28;20096;-88
2021/07/07 13:11:42;;;;;;;10.95;6.55;;;;;;;;;;5114385;28;20023;-89
2021/07/07 13:14:25;;;;;;;8.88;5.07;;;;;;;;;;5015124;28;20588;-93
2021/07/07 13:16:53;;;;;;;8.88;6.65;;;;;;;;;;5016136;28;20397;-90
2021/07/07 13:19:27;;;;;;;9.90;7.25;;;;;;;;;;5032167;28;20083;-94
2021/07/07 13:21:56;;;;;;;9.10;4.95;;;;;;;;;;5014862;28;20036;-93
2021/07/07 13:24:27;;;;;;;10.70;5.03;;;;;;;;;;5031693;28;20038;-90
2021/07/07 13:27:00;;;;;;;7.72;3.83;;;;;;;;;;5015016;28;20029;-91
2021/07/07 13:29:29;;;;;;;9.98;7.15;;;;;;;;;;5015041;28;20034;-93
2021/07/07 13:32:08;;;;;;;9.80;6.03;;;;;;;;;;5031423;28;20033;-90
2021/07/07 13:34:44;;;;;;;7.28;4.50;;;;;;;;;;5014706;28;20034;-92
2021/07/07 13:37:34;;;;;;;7.13;4.35;;;;;;;;;;5015434;28;20037;-89
2021/07/07 13:40:05;;;;;;;8.27;6.82;;;;;;;;;;5014797;28;20030;-90
2021/07/07 13:42:34;;;;;;;7.38;6.07;;;;;;;;;;5014980;28;20509;-91
2021/07/07 13:45:00;;;;;;;10.52;7.20;;;;;;;;;;5014946;28;20091;-88
2021/07/07 13:47:28;;;;;;;8.57;4.07;;;;;;;;;;5030712;28;20022;-90
2021/07/07 13:49:57;;;;;;;7.90;4.15;;;;;;;;;;5062649;28;20118;-89
2021/07/07 13:52:32;;;;;;;7.57;4.22;;;;;;;;;;5097183;28;20043;-89
2021/07/07 13:55:05;;;;;;;8.35;4.32;;;;;;;;;;5096017;28;20023;-89
2021/07/07 13:57:38;;;;;;;7.40;6.18;;;;;;;;;;5114116;28;20491;-90
2021/07/07 14:00:06;;;;;;;7.60;4.80;;;;;;;;;;5096644;28;20510;-91
2021/07/07 14:02:32;;;;;;;9.10;7.00;;;;;;;;;;5081175;28;20035;-90
2021/07/07 14:05:09;;;;;;;7.65;4.25;;;;;;;;;;5104333;22;20020;-88
2021/07/07 14:07:35;;;;;;;7.32;4.03;;;;;;;;;;5075637;28;20109;-87
2021/07/07 14:10:01;;;;;;;9.00;6.93;;;;;;;;;;5077291;28;20029;-91
2021/07/07 14:12:26;;;;;;;10.48;4.22;;;;;;;;;;5077874;28;20086;-92
2021/07/07 14:14:52;;;;;;;6.35;4.25;;;;;;;;;;5077655;28;20482;-89
2021/07/07 14:17:24;;;;;;;8.00;4.00;;;;;;;;;;5082842;28;20024;-87
2021/07/07 14:19:55;;;;;;;7.35;3.58;;;;;;;;;;5087888;28;20021;-87
2021/07/07 14:22:21;;;;;;;8.68;3.85;;;;;;;;;;5078901;28;20024;-90
2021/07/07 14:24:46;;;;;;;9.50;4.78;;;;;;;;;;5080071;28;20021;-87
2021/07/07 14:27:13;;;;;;;7.68;5.80;;;;;;;;;;5083403;28;20376;-88
2021/07/07 14:29:41;;;;;;;6.50;4.03;;;;;;;;;;5077723;28;20071;-89
2021/07/07 14:32:08;;;;;;;7.75;6.35;;;;;;;;;;5077407;28;20024;-88
2021/07/07 14:34:33;;;;;;;7.63;4.07;;;;;;;;;;5075778;28;20029;-90
2021/07/07 14:37:00;;;;;;;5.93;3.60;;;;;;;;;;5076924;28;20090;-90
2021/07/07 14:39:29;;;;;;;7.88;5.72;;;;;;;;;;5075641;28;20048;-89
2021/07/07 14:41:55;;;;;;;7.50;4.22;;;;;;;;;;5074480;28;20062;-90
2021/07/07 14:44:22;;;;;;;8.30;4.97;;;;;;;;;;5074674;28;20050;-92
2021/07/07 14:46:47;;;;;;;7.28;4.15;;;;;;;;;;5076510;28;20028;-88
2021/07/07 14:49:39;;;;;;;7.00;4.40;;;;;;;;;;5076270;28;20042;-90
2021/07/07 14:52:05;;;;;;;8.10;3.53;;;;;;;;;;5075820;28;20025;-88